Arabia, CA

3:30 AM PDT on September 21, 2014 (GMT -0700)
MesoWest Coachella CA US SGXWFO | Change Station
CLOSE
Current Station
Personal Weather Station
Location: Salton City, CA
Elevation: -100 ft
Nearby Weather Stations

Elev -100 ft 33.66 °N, 116.15 °W | Updated 36 minutes ago

Clear
Clear
81 °F
Feels Like 81 °F
N
14
Wind Variable Wind from NW
Gusts 0.0 mph

Today
High -- | Low -- °F
--% Chance of Precip.
Yesterday
High -- | Low -- °F
Precip. -- in
6:32 AM 6:42 PM
Waning Crescent, 7% visible
Pressure 29.77 in
Visibility 10.0 miles
Clouds Clear
Heat Index 81 °F
Dew Point 56 °F
Humidity 42%
Rainfall -999.00 in
Snow Depth 0 in , 0 in , 0 in
UV 0 out of 12
Pollen 5.50 out of 12
Ozone Good
Flu Activity Not available.
METAR KTRM 210952Z AUTO 33009KT 10SM CLR 27/13 A2976 RMK AO2 SLP080 T02670133 TSNO

More Conditions Fewer Conditions

Pressure 29.77 in
Visibility 10.0 miles
Clouds Clear
Heat Index 81 °F
Dew Point 56 °F
Humidity 42%
Rainfall -999.00 in
Snow Depth 0 in , 0 in , 0 in
UV 0 out of 12
Pollen 5.50 out of 12
Ozone Good
Flu Activity Not available.
METAR KTRM 210952Z AUTO 33009KT 10SM CLR 27/13 A2976 RMK AO2 SLP080 T02670133 TSNO

More Conditions Fewer Conditions

10-Day Weather Forecast

Almanac

Astronomy

Sep. 21, 2014 Rise Set
Actual Time 6:32 AM PDT 6:42 PM PDT
Civil Twilight 6:07 AM PDT 7:07 PM PDT
Nautical Twilight 5:38 AM PDT 7:36 PM PDT
Astronomical Twilight 5:08 AM PDT 8:05 PM PDT
Moon 4:15 AM PDT 5:17 PM PDT
Length of Visible Light 13h 00m
Length of Day
12h 10m
Tomorrow will be 2m 5s shorter.
Waning Crescent, 7% of the Moon is Illuminated
Today
Waning Crescent
Sep 24
New
Oct 1
First Quarter
Oct 8
Full
Oct 15
Last Quarter

Today's Extremes

State Highs State Lows

Community

WunderPhotos

Upload Photos

1,755,108 photos uploaded!

Nearby

Air Quality

  Air Quality AQ Index Pollutant
Yesterday Good
OZONE
Yesterday Good
PM10
Current Good
OZONE
Sunday Moderate
OZONE
Sunday Good
PM10
Sunday Good
CO
Sunday Good
NO2

Snow Depth

Station Depth Elevation
Ebbetts Pass 0 in 8700 ft
Heavenly Valley 0 in 8850 ft
Burnside Lake 1 in 8139 ft
Adin Mountain 0 in 6200 ft
Leavitt Lake 1 in 9400 ft

Earthquake Activity

City Distance Mag. Time & Date
Aguanga, California 37 miles 2.5 1:38 AM PDT
2014-09-19
Minimum magnitude displayed is 2.5.

Coastal Water Temperatures

Place Temperature
No Stations Reporting

Nearby Weather Stations